Time;durP1;ratioP1;P1;durP2;ratioP2;P2;SDS_P1;SDS_P2;PMS_P1;PMS_P2;Temp;Humidity;BMP_temperature;BMP_pressure;BME280_temperature;BME280_humidity;BME280_pressure;Samples;Min_cycle;Max_cycle;Signal;HPM_P1;HPM_P2
2021/11/06 00:01:21;;;;;;;132.85;25.98;;;;;;;11.03;100.00;100668.47;5069455;28;20040;-19
2021/11/06 00:03:46;;;;;;;153.27;27.00;;;;;;;11.17;100.00;100671.91;5069322;28;20067;-20
2021/11/06 00:06:12;;;;;;;166.98;28.83;;;;;;;11.22;100.00;100672.13;5069542;28;20039;-19
2021/11/06 00:08:37;;;;;;;107.15;28.20;;;;;;;11.08;100.00;100673.16;5051628;28;20036;-20
2021/11/06 00:11:03;;;;;;;141.40;26.95;;;;;;;11.27;100.00;100664.28;5069512;28;20058;-19
2021/11/06 00:13:28;;;;;;;138.45;28.48;;;;;;;11.62;98.45;100649.81;5069513;28;20036;-20
2021/11/06 00:15:54;;;;;;;87.45;26.15;;;;;;;11.83;96.74;100644.19;5068905;28;20032;-20
2021/11/06 00:18:20;;;;;;;119.72;28.05;;;;;;;12.17;94.98;100660.06;5069151;28;20115;-19
2021/11/06 00:20:45;;;;;;;143.23;27.10;;;;;;;11.81;94.22;100650.75;5069243;28;20032;-21
2021/11/06 00:23:10;;;;;;;118.60;26.40;;;;;;;11.93;95.62;100662.47;5069357;28;20090;-19
2021/11/06 00:25:36;;;;;;;65.93;20.67;;;;;;;11.50;95.81;100649.63;5069303;28;20028;-19
2021/11/06 00:28:02;;;;;;;67.22;22.50;;;;;;;11.35;96.91;100654.44;5068782;28;20432;-20
2021/11/06 00:30:27;;;;;;;115.65;25.55;;;;;;;11.29;97.32;100660.59;5068991;28;20021;-20
2021/11/06 00:32:53;;;;;;;110.88;23.15;;;;;;;11.55;95.99;100649.03;5068853;28;20474;-20
2021/11/06 00:35:18;;;;;;;95.07;24.42;;;;;;;11.29;97.78;100665.94;5068478;28;20033;-19
2021/11/06 00:37:44;;;;;;;90.05;24.27;;;;;;;11.48;97.02;100654.38;5068476;28;20034;-19
2021/11/06 00:40:11;;;;;;;109.70;24.77;;;;;;;11.15;98.33;100665.94;5047655;28;20049;-19
2021/11/06 00:42:36;;;;;;;99.20;24.17;;;;;;;11.15;98.92;100663.28;5049094;28;20031;-20
2021/11/06 00:45:02;;;;;;;134.77;27.65;;;;;;;11.25;98.61;100649.50;5048905;28;20477;-19
2021/11/06 00:47:29;;;;;;;153.80;24.47;;;;;;;11.15;98.11;100643.78;5048671;28;20057;-20
2021/11/06 00:49:55;;;;;;;98.50;26.85;;;;;;;11.34;97.94;100642.09;5048622;28;20519;-20
2021/11/06 00:52:20;;;;;;;111.53;27.25;;;;;;;11.56;97.41;100648.81;5047468;28;20110;-19
2021/11/06 00:54:46;;;;;;;107.28;27.77;;;;;;;11.81;96.35;100648.94;5048712;28;20041;-19
2021/11/06 00:57:11;;;;;;;145.27;27.50;;;;;;;11.97;94.50;100658.34;5048664;28;20090;-19
2021/11/06 00:59:36;;;;;;;114.90;26.70;;;;;;;12.06;93.53;100657.03;5048507;28;20029;-21
2021/11/06 01:02:02;;;;;;;196.18;28.98;;;;;;;11.97;93.55;100657.50;5047195;28;20032;-20
2021/11/06 01:04:27;;;;;;;110.47;25.33;;;;;;;12.09;93.00;100660.31;5048469;28;20041;-19
2021/11/06 01:06:53;;;;;;;118.28;23.63;;;;;;;11.79;94.06;100658.16;5048130;28;20033;-20
2021/11/06 01:09:18;;;;;;;152.02;25.33;;;;;;;11.56;94.66;100637.31;5048259;28;20036;-19
2021/11/06 01:11:44;;;;;;;109.30;24.13;;;;;;;11.53;95.54;100641.22;5046875;28;20128;-20
2021/11/06 01:14:09;;;;;;;130.18;27.17;;;;;;;11.83;94.04;100630.81;5047036;28;20555;-19
2021/11/06 01:16:35;;;;;;;139.07;27.13;;;;;;;11.98;93.57;100643.13;5048145;28;20028;-19
2021/11/06 01:19:00;;;;;;;128.65;26.60;;;;;;;12.01;94.00;100646.19;5048172;28;20083;-19
2021/11/06 01:21:27;;;;;;;190.10;29.02;;;;;;;11.67;94.42;100647.34;5048279;28;20428;-20
2021/11/06 01:23:52;;;;;;;131.13;24.20;;;;;;;11.92;93.07;100650.13;5048379;28;20029;-20
2021/11/06 01:26:18;;;;;;;148.68;23.60;;;;;;;11.78;93.14;100648.53;5048213;28;20106;-20
2021/11/06 01:28:43;;;;;;;133.18;24.20;;;;;;;11.80;93.12;100657.97;5048130;28;20067;-19
2021/11/06 01:31:09;;;;;;;142.05;22.33;;;;;;;11.50;94.17;100644.31;5048172;28;20033;-19
2021/11/06 01:33:34;;;;;;;87.05;21.30;;;;;;;11.47;94.80;100658.09;5048288;28;20485;-20
2021/11/06 01:36:00;;;;;;;121.03;23.10;;;;;;;11.43;95.00;100656.88;5046625;28;20872;-20
2021/11/06 01:38:25;;;;;;;130.75;22.92;;;;;;;11.57;94.23;100663.81;5052443;28;20044;-19
2021/11/06 01:40:51;;;;;;;132.48;21.00;;;;;;;11.42;94.21;100639.19;5050098;28;20040;-20
2021/11/06 01:43:17;;;;;;;113.85;21.13;;;;;;;11.39;94.39;100652.97;5068028;28;20462;-20
2021/11/06 01:45:42;;;;;;;79.65;20.83;;;;;;;11.36;95.07;100656.06;5068174;28;20063;-19
2021/11/06 01:48:08;;;;;;;138.27;24.65;;;;;;;11.59;94.01;100666.28;5072136;28;20036;-25
2021/11/06 01:50:33;;;;;;;105.63;19.08;;;;;;;11.04;95.35;100648.72;5072349;28;20036;-19
2021/11/06 01:52:59;;;;;;;87.25;19.58;;;;;;;11.10;95.99;100671.09;5053996;28;20028;-19
2021/11/06 01:55:24;;;;;;;78.45;18.13;;;;;;;10.97;95.61;100647.09;5072136;28;20040;-19
2021/11/06 01:57:50;;;;;;;132.85;20.40;;;;;;;11.11;95.27;100670.06;5071656;28;20087;-19
2021/11/06 02:00:24;;;;;;;91.40;19.10;;;;;;;10.99;95.30;100659.22;5053752;28;20036;-19
2021/11/06 02:02:49;;;;;;;60.10;16.63;;;;;;;10.68;96.56;100680.34;5072003;28;20032;-19
2021/11/06 02:05:15;;;;;;;61.75;17.77;;;;;;;10.86;96.17;100683.22;5071877;28;20032;-19
2021/11/06 02:07:40;;;;;;;53.33;16.98;;;;;;;10.81;95.35;100681.19;5071868;28;20031;-20
2021/11/06 02:10:06;;;;;;;83.30;19.92;;;;;;;10.69;95.65;100682.81;5071831;28;20032;-19
2021/11/06 02:12:32;;;;;;;67.43;18.38;;;;;;;10.72;95.91;100682.41;5071555;28;20036;-26
2021/11/06 02:14:57;;;;;;;76.60;18.75;;;;;;;10.81;96.02;100694.53;5071733;28;20033;-19
2021/11/06 02:17:23;;;;;;;85.90;18.15;;;;;;;10.76;96.22;100688.97;5071643;28;20060;-20
2021/11/06 02:19:48;;;;;;;71.35;18.05;;;;;;;10.85;96.25;100690.44;5071193;28;20029;-19
2021/11/06 02:22:14;;;;;;;86.80;19.90;;;;;;;10.71;96.81;100674.63;5071425;28;20404;-20
2021/11/06 02:24:39;;;;;;;57.55;18.83;;;;;;;10.76;97.14;100691.63;5071501;28;20024;-20
2021/11/06 02:27:05;;;;;;;74.40;18.10;;;;;;;10.68;96.50;100683.84;5053569;28;20460;-20
2021/11/06 02:29:32;;;;;;;62.03;19.60;;;;;;;10.89;95.71;100690.84;5071640;28;20066;-19
2021/11/06 02:31:58;;;;;;;98.60;23.67;;;;;;;10.82;97.06;100692.69;5071163;28;20029;-20
2021/11/06 02:34:23;;;;;;;100.60;20.05;;;;;;;10.84;97.07;100691.44;5071423;28;20043;-20
2021/11/06 02:36:49;;;;;;;102.18;22.83;;;;;;;11.09;95.50;100690.00;5071007;28;20463;-20
2021/11/06 02:39:14;;;;;;;90.78;22.85;;;;;;;11.20;95.14;100690.19;5070933;28;20052;-20
2021/11/06 02:41:40;;;;;;;86.93;22.30;;;;;;;11.37;94.63;100708.44;5071206;28;20032;-19
2021/11/06 02:44:12;;;;;;;68.55;18.60;;;;;;;11.32;93.40;100709.06;5052722;28;20059;-19
2021/11/06 02:46:38;;;;;;;82.30;21.52;;;;;;;11.46;93.56;100715.19;5054133;28;20492;-19
2021/11/06 02:49:07;;;;;;;76.70;22.20;;;;;;;11.44;93.83;100698.56;5071312;28;20039;-20
2021/11/06 02:51:32;;;;;;;55.55;19.58;;;;;;;11.54;92.96;100706.16;5070906;28;20028;-19
2021/11/06 02:53:58;;;;;;;102.45;23.83;;;;;;;11.75;92.44;100707.72;5070647;28;20071;-20
2021/11/06 02:56:25;;;;;;;72.10;20.45;;;;;;;11.49;92.21;100709.44;5070601;28;20031;-20
2021/11/06 02:58:50;;;;;;;60.80;19.77;;;;;;;11.20;93.40;100716.88;5070336;28;20024;-20
2021/11/06 03:01:16;;;;;;;85.25;23.10;;;;;;;11.15;94.27;100735.34;5070819;28;20047;-20
2021/11/06 03:03:41;;;;;;;75.15;21.98;;;;;;;11.14;94.09;100723.06;5052735;28;20443;-23
2021/11/06 03:06:07;;;;;;;71.35;21.83;;;;;;;11.15;94.30;100731.88;5070789;28;20500;-20
2021/11/06 03:08:32;;;;;;;94.18;24.08;;;;;;;11.23;94.16;100723.66;5070834;28;20064;-20
2021/11/06 03:10:58;;;;;;;91.53;24.13;;;;;;;11.20;94.05;100711.56;5070801;28;20086;-20
2021/11/06 03:13:25;;;;;;;89.45;25.92;;;;;;;11.48;93.05;100698.97;5070498;28;20039;-19
2021/11/06 03:15:51;;;;;;;127.30;24.58;;;;;;;11.41;93.19;100717.69;5070136;28;20033;-20
2021/11/06 03:18:16;;;;;;;98.55;24.13;;;;;;;11.38;93.01;100720.75;5070584;28;20028;-19
2021/11/06 03:20:42;;;;;;;116.63;25.55;;;;;;;11.36;92.64;100704.97;5070591;28;20032;-20
2021/11/06 03:23:07;;;;;;;102.88;23.90;;;;;;;11.23;93.25;100731.66;5070600;28;20028;-20
2021/11/06 03:25:33;;;;;;;87.15;24.75;;;;;;;11.50;92.61;100735.13;5070279;28;20032;-20
2021/11/06 03:27:58;;;;;;;73.80;22.50;;;;;;;11.84;90.48;100717.97;5070419;28;20025;-19
2021/11/06 03:30:24;;;;;;;59.45;24.67;;;;;;;11.74;91.93;100711.44;5070299;28;20822;-19
2021/11/06 03:32:49;;;;;;;104.07;24.02;;;;;;;11.57;92.44;100705.75;5070187;28;20032;-20
2021/11/06 03:35:15;;;;;;;81.10;21.27;;;;;;;11.22;94.10;100716.69;5070300;28;20101;-19
2021/11/06 03:37:41;;;;;;;111.03;24.70;;;;;;;11.44;93.39;100719.94;5070081;28;20032;-20
2021/11/06 03:40:07;;;;;;;166.98;26.65;;;;;;;11.72;91.89;100722.31;5069760;28;20060;-19
2021/11/06 03:42:33;;;;;;;94.40;24.15;;;;;;;11.58;91.28;100734.91;5069785;28;20021;-19
2021/11/06 03:44:58;;;;;;;86.68;23.35;;;;;;;11.55;90.81;100719.31;5051937;28;20478;-20
2021/11/06 03:47:24;;;;;;;139.65;22.33;;;;;;;11.30;92.21;100737.00;5051868;28;20032;-19
2021/11/06 03:49:49;;;;;;;69.32;19.73;;;;;;;11.05;92.18;100724.28;5069724;28;20802;-20
2021/11/06 03:52:15;;;;;;;106.05;23.15;;;;;;;11.36;91.58;100752.19;5069832;28;20040;-19
2021/11/06 03:54:42;;;;;;;63.35;20.75;;;;;;;11.45;91.63;100750.97;5070017;28;20123;-20
2021/11/06 03:57:07;;;;;;;75.63;20.10;;;;;;;11.69;90.41;100756.66;5069765;28;20037;-20
2021/11/06 03:59:33;;;;;;;76.63;23.17;;;;;;;12.04;88.77;100763.38;5069465;28;20025;-19
2021/11/06 04:01:58;;;;;;;70.43;21.25;;;;;;;11.72;89.99;100758.91;5069588;28;20040;-20
2021/11/06 04:04:24;;;;;;;93.35;23.27;;;;;;;11.59;90.26;100752.56;5069740;28;20040;-21
2021/11/06 04:06:49;;;;;;;37.88;18.42;;;;;;;11.58;89.64;100740.22;5069768;28;20027;-19
2021/11/06 04:09:15;;;;;;;48.97;19.80;;;;;;;11.49;90.35;100730.00;5068756;28;20029;-20
2021/11/06 04:11:40;;;;;;;78.03;20.25;;;;;;;11.33;91.94;100736.59;5069410;28;20032;-20
2021/11/06 04:14:06;;;;;;;52.88;19.92;;;;;;;11.61;90.47;100763.88;5069145;28;20097;-20
2021/11/06 04:16:31;;;;;;;75.22;19.98;;;;;;;11.51;89.73;100771.50;5069471;28;20126;-20
2021/11/06 04:18:57;;;;;;;81.80;18.35;;;;;;;11.37;89.68;100775.22;5069180;28;20028;-20
2021/11/06 04:21:22;;;;;;;77.28;20.58;;;;;;;11.23;91.04;100780.53;5069234;28;20032;-20
2021/11/06 04:23:48;;;;;;;60.83;18.85;;;;;;;11.07;90.98;100778.28;5068651;28;20082;-20
2021/11/06 04:26:13;;;;;;;84.72;22.17;;;;;;;10.83;93.02;100780.53;5051133;28;20090;-20
2021/11/06 04:28:39;;;;;;;58.45;22.05;;;;;;;11.19;91.58;100775.81;5069219;28;20491;-19
2021/11/06 04:31:04;;;;;;;62.22;20.48;;;;;;;11.21;91.21;100766.56;5069031;28;20031;-20
2021/11/06 04:33:30;;;;;;;65.68;21.67;;;;;;;11.09;90.89;100757.53;5069033;28;20028;-20
2021/11/06 04:35:55;;;;;;;66.57;19.42;;;;;;;10.90;92.67;100748.50;5050927;28;20531;-19
2021/11/06 04:38:21;;;;;;;34.65;17.20;;;;;;;11.05;92.14;100746.47;5068801;28;20056;-21
2021/11/06 04:40:46;;;;;;;68.25;19.58;;;;;;;11.31;89.78;100738.66;5069041;28;20046;-19
2021/11/06 04:43:12;;;;;;;112.63;21.90;;;;;;;11.30;89.61;100737.00;5067579;28;20467;-20
2021/11/06 04:45:37;;;;;;;76.40;21.08;;;;;;;11.45;89.46;100746.44;5067482;28;20028;-19
2021/11/06 04:48:03;;;;;;;123.38;22.27;;;;;;;11.39;89.47;100741.09;5068658;28;20031;-19
2021/11/06 04:50:28;;;;;;;112.50;21.17;;;;;;;11.60;87.41;100756.88;5068828;28;20021;-20
2021/11/06 04:52:54;;;;;;;77.93;19.00;;;;;;;11.40;88.17;100758.75;5068756;28;20389;-20
2021/11/06 04:55:20;;;;;;;38.08;13.65;;;;;;;10.67;89.69;100767.56;5067161;28;20463;-20
2021/11/06 04:57:45;;;;;;;54.15;16.60;;;;;;;10.54;91.58;100763.03;5068189;28;20082;-20
2021/11/06 05:00:12;;;;;;;53.50;16.52;;;;;;;10.45;91.72;100773.03;5050588;28;20035;-19
2021/11/06 05:02:38;;;;;;;119.00;19.63;;;;;;;10.61;91.47;100765.72;5068509;28;20112;-20
2021/11/06 05:05:05;;;;;;;75.45;18.75;;;;;;;10.96;89.79;100784.25;5068515;28;20033;-20
2021/11/06 05:07:30;;;;;;;94.65;16.85;;;;;;;10.63;90.23;100772.47;5068295;28;20033;-20
2021/11/06 05:09:56;;;;;;;95.68;17.77;;;;;;;10.77;90.45;100780.53;5068464;28;20040;-19
2021/11/06 05:12:22;;;;;;;55.30;16.90;;;;;;;10.65;90.45;100780.28;5068504;28;20058;-20
2021/11/06 05:14:48;;;;;;;72.72;17.77;;;;;;;10.57;91.61;100765.28;5068403;28;20473;-20
2021/11/06 05:17:14;;;;;;;61.90;17.25;;;;;;;10.33;91.81;100784.50;5050360;28;20420;-20
2021/11/06 05:19:40;;;;;;;40.22;16.40;;;;;;;10.20;92.46;100779.91;5068260;28;20032;-21
2021/11/06 05:22:07;;;;;;;40.40;15.57;;;;;;;10.14;93.83;100808.16;5068443;28;20454;-20
2021/11/06 05:24:33;;;;;;;44.08;13.60;;;;;;;9.84;94.02;100823.56;5068158;28;20025;-21
2021/11/06 05:26:58;;;;;;;110.00;18.33;;;;;;;9.92;94.64;100804.75;5068474;28;20032;-19
2021/11/06 05:29:24;;;;;;;72.20;18.60;;;;;;;10.22;93.09;100807.19;5068003;28;20028;-20
2021/11/06 05:31:49;;;;;;;43.75;14.60;;;;;;;10.35;91.88;100809.91;5067964;28;20033;-20
2021/11/06 05:34:15;;;;;;;50.75;15.13;;;;;;;10.16;92.56;100800.78;5068116;28;20024;-20
2021/11/06 05:36:40;;;;;;;145.05;19.40;;;;;;;10.14;93.56;100802.03;5068069;28;20111;-19
2021/11/06 05:39:06;;;;;;;110.03;18.85;;;;;;;10.32;92.76;100805.00;5050020;28;20052;-22
2021/11/06 05:41:31;;;;;;;92.68;16.67;;;;;;;10.32;91.09;100813.00;5068029;28;20029;-21
2021/11/06 05:43:57;;;;;;;53.80;16.67;;;;;;;10.48;90.80;100821.66;5068175;28;20036;-22
2021/11/06 05:46:23;;;;;;;49.60;15.32;;;;;;;10.90;89.58;100825.91;5050130;28;20051;-23
2021/11/06 05:48:48;;;;;;;40.92;15.20;;;;;;;10.83;90.97;100825.88;5068098;28;20036;-21
2021/11/06 05:51:13;;;;;;;54.50;16.38;;;;;;;10.93;89.21;100816.66;5068169;28;20028;-22
2021/11/06 05:53:39;;;;;;;66.38;19.48;;;;;;;10.67;91.79;100826.25;5067781;28;20032;-21
2021/11/06 05:56:04;;;;;;;82.75;17.45;;;;;;;10.99;89.44;100840.72;5067695;28;20037;-22
2021/11/06 05:58:30;;;;;;;92.38;16.85;;;;;;;11.04;87.65;100842.75;5067765;28;20033;-23
2021/11/06 06:00:55;;;;;;;93.30;17.88;;;;;;;11.21;88.18;100852.00;5068039;28;20879;-21
2021/11/06 06:03:21;;;;;;;37.13;15.48;;;;;;;10.90;88.07;100855.25;5068070;28;20036;-22
2021/11/06 06:05:46;;;;;;;115.47;17.27;;;;;;;11.03;88.15;100843.78;5067551;28;20024;-22
2021/11/06 06:08:12;;;;;;;45.20;14.60;;;;;;;11.01;87.96;100848.50;5067808;28;20063;-22
2021/11/06 06:10:38;;;;;;;55.08;14.38;;;;;;;11.25;86.67;100850.56;5067890;28;20055;-21
2021/11/06 06:13:03;;;;;;;45.95;12.82;;;;;;;11.21;86.45;100867.22;5050067;28;20040;-22
2021/11/06 06:15:29;;;;;;;35.03;12.63;;;;;;;11.11;87.74;100880.94;5067378;28;20484;-22
2021/11/06 06:17:55;;;;;;;29.83;12.77;;;;;;;11.03;88.21;100862.44;5067820;28;20067;-22
2021/11/06 06:20:20;;;;;;;37.92;13.75;;;;;;;11.13;86.54;100881.56;5067630;28;20036;-22
2021/11/06 06:22:46;;;;;;;32.17;15.23;;;;;;;11.34;86.84;100895.78;5067636;28;20064;-23
2021/11/06 06:25:12;;;;;;;78.65;17.83;;;;;;;11.42;86.46;100890.22;5067702;28;20497;-21
2021/11/06 06:28:54;;;;;;;28.57;15.07;;;;;;;11.49;87.02;100912.44;4856947;27;8279656;-20
2021/11/06 06:31:20;;;;;;;33.25;15.65;;;;;;;11.50;85.65;100913.25;5106173;28;20097;-21
2021/11/06 06:33:45;;;;;;;29.75;16.10;;;;;;;11.02;88.98;100890.19;5087438;28;20046;-20
2021/11/06 06:36:11;;;;;;;51.30;20.80;;;;;;;10.89;91.15;100898.13;5105783;28;20047;-20
2021/11/06 06:38:37;;;;;;;34.78;17.85;;;;;;;11.23;89.49;100918.56;5104328;28;20107;-20
2021/11/06 06:41:02;;;;;;;43.95;17.70;;;;;;;11.70;86.65;100931.97;5104488;28;20449;-20
2021/11/06 06:43:28;;;;;;;60.08;20.08;;;;;;;11.91;85.64;100921.13;5105889;28;20063;-20
2021/11/06 06:45:54;;;;;;;50.13;21.13;;;;;;;11.80;84.94;100916.38;5104762;28;20118;-20
2021/11/06 06:48:19;;;;;;;46.72;20.05;;;;;;;11.14;87.61;100909.94;5105793;28;20028;-20
2021/11/06 06:50:49;;;;;;;37.63;21.67;;;;;;;11.02;88.99;100916.88;5105437;28;20042;-20
2021/11/06 06:53:16;;;;;;;85.18;22.27;;;;;;;11.10;89.40;100929.22;5105993;28;20092;-19
2021/11/06 06:55:42;;;;;;;42.40;22.25;;;;;;;11.14;89.69;100936.63;5105449;28;20596;-20
2021/11/06 06:58:07;;;;;;;40.50;20.08;;;;;;;10.95;90.42;100919.53;5105491;28;20020;-21
2021/11/06 07:00:33;;;;;;;51.05;22.63;;;;;;;10.97;91.25;100941.50;5104312;28;20035;-21
2021/11/06 07:02:58;;;;;;;81.32;26.45;;;;;;;10.82;92.78;100933.63;5105513;28;20140;-20
2021/11/06 07:05:24;;;;;;;45.83;24.70;;;;;;;10.93;92.24;100928.75;5104460;28;20031;-20
2021/11/06 07:07:49;;;;;;;58.45;27.73;;;;;;;11.29;90.02;100947.13;5105767;28;20382;-21
2021/11/06 07:10:14;;;;;;;64.43;26.77;;;;;;;11.18;90.19;100931.72;5105391;28;20071;-20
2021/11/06 07:12:41;;;;;;;52.38;28.13;;;;;;;11.76;88.16;100940.00;5105474;28;20035;-21
2021/11/06 07:15:07;;;;;;;52.22;27.30;;;;;;;12.33;84.76;100940.41;5103650;28;20042;-21
2021/11/06 07:17:32;;;;;;;64.63;34.05;;;;;;;12.52;83.45;100940.56;5105003;28;20028;-20
2021/11/06 07:19:58;;;;;;;80.63;33.28;;;;;;;12.30;83.31;100940.81;5105540;28;20093;-20
2021/11/06 07:22:24;;;;;;;220.27;103.40;;;;;;;12.48;83.82;100952.72;5105060;28;20453;-21
2021/11/06 07:24:49;;;;;;;88.50;37.38;;;;;;;12.09;85.29;100954.41;5103660;28;20034;-20
2021/11/06 07:27:15;;;;;;;82.15;36.78;;;;;;;12.28;84.67;100948.25;5104925;28;20032;-20
2021/11/06 07:29:40;;;;;;;81.70;34.42;;;;;;;11.98;85.75;100937.97;5115144;28;20055;-20
2021/11/06 07:32:06;;;;;;;70.35;32.40;;;;;;;12.07;85.88;100935.91;5106765;28;20558;-20
2021/11/06 07:34:31;;;;;;;65.90;30.60;;;;;;;12.20;85.31;100951.94;5125350;28;20038;-20
2021/11/06 07:36:57;;;;;;;53.75;28.83;;;;;;;11.97;86.04;100935.50;5107033;28;20539;-20
2021/11/06 07:39:22;;;;;;;54.03;26.27;;;;;;;11.87;88.50;100949.28;5114243;28;20136;-20
2021/11/06 07:41:48;;;;;;;54.00;27.17;;;;;;;11.83;87.66;100953.38;5111641;28;20032;-21
2021/11/06 07:44:13;;;;;;;60.97;25.95;;;;;;;11.83;87.86;100945.38;5111693;28;20088;-21
2021/11/06 07:46:39;;;;;;;50.35;27.50;;;;;;;11.73;88.67;100940.41;5111735;28;20104;-20
2021/11/06 07:49:05;;;;;;;57.92;25.98;;;;;;;12.29;87.20;100947.19;5111533;28;20113;-20
2021/11/06 07:51:31;;;;;;;41.83;22.00;;;;;;;11.92;88.27;100928.09;5111352;28;20028;-20
2021/11/06 07:53:56;;;;;;;59.88;24.17;;;;;;;12.11;87.91;100953.19;5092859;28;20039;-20
2021/11/06 07:56:22;;;;;;;38.55;19.77;;;;;;;11.72;87.86;100948.63;5111221;28;20028;-21
2021/11/06 07:58:47;;;;;;;49.65;19.73;;;;;;;11.64;88.38;100937.09;5075811;28;20758;-20
2021/11/06 08:01:13;;;;;;;96.45;30.80;;;;;;;12.20;87.02;100951.13;5092890;28;20034;-20
2021/11/06 08:03:38;;;;;;;58.15;20.90;;;;;;;11.88;88.03;100942.06;5111019;28;20521;-20
2021/11/06 08:06:04;;;;;;;41.58;20.90;;;;;;;12.30;86.00;100959.56;5111405;28;20036;-20
2021/11/06 08:08:30;;;;;;;39.10;21.08;;;;;;;12.26;87.27;100944.94;5092618;28;20058;-21
2021/11/06 08:10:56;;;;;;;46.10;22.25;;;;;;;12.59;85.84;100962.78;5092751;28;20058;-19
2021/11/06 08:13:22;;;;;;;37.58;21.52;;;;;;;12.48;85.93;100950.03;5092793;28;20088;-20
2021/11/06 08:15:47;;;;;;;159.40;79.93;;;;;;;12.71;86.94;100954.91;5111198;28;20028;-20
2021/11/06 08:18:13;;;;;;;54.50;24.70;;;;;;;12.60;87.14;100954.53;5110876;28;20035;-20
2021/11/06 08:20:38;;;;;;;40.25;22.58;;;;;;;12.65;86.28;100948.56;5110456;28;20028;-20
2021/11/06 08:23:04;;;;;;;52.13;27.77;;;;;;;13.02;84.85;100954.19;5110965;28;20036;-20
2021/11/06 08:25:29;;;;;;;37.63;19.13;;;;;;;12.54;85.65;100935.81;5110804;28;20092;-20
2021/11/06 08:27:55;;;;;;;30.13;18.50;;;;;;;12.71;85.79;100952.22;5110161;28;20044;-20
2021/11/06 08:30:23;;;;;;;30.30;19.17;;;;;;;13.30;83.80;100953.03;5110414;28;20127;-20
2021/11/06 08:32:49;;;;;;;32.17;20.98;;;;;;;13.44;83.35;100957.25;5092176;28;20064;-21
2021/11/06 08:35:14;;;;;;;30.10;19.52;;;;;;;13.18;84.38;100955.56;5092300;28;20035;-20
2021/11/06 08:37:40;;;;;;;29.65;20.33;;;;;;;13.61;81.85;100942.31;5110389;28;20034;-20
2021/11/06 08:40:07;;;;;;;39.08;24.77;;;;;;;13.52;86.08;100954.31;5110582;28;20389;-20
2021/11/06 08:42:34;;;;;;;35.55;22.73;;;;;;;13.66;85.11;100947.84;5110067;28;20028;-20
2021/11/06 08:45:00;;;;;;;34.38;22.13;;;;;;;13.47;85.33;100951.50;5075088;28;20024;-21
2021/11/06 08:47:25;;;;;;;31.10;21.33;;;;;;;13.81;83.14;100958.25;5110578;28;20414;-20
2021/11/06 08:49:51;;;;;;;31.00;20.02;;;;;;;13.75;84.62;100955.59;5109389;28;20035;-20
2021/11/06 08:52:20;;;;;;;27.73;17.52;;;;;;;13.38;86.46;100958.97;5110068;28;20568;-20
2021/11/06 08:54:49;;;;;;;27.10;19.42;;;;;;;13.71;84.67;100949.88;5110019;28;20409;-20
2021/11/06 08:57:15;;;;;;;30.05;19.33;;;;;;;14.43;82.54;100955.63;5109910;28;20027;-20
2021/11/06 08:59:40;;;;;;;27.77;17.80;;;;;;;14.68;82.72;100962.81;5091638;28;20031;-19
2021/11/06 09:02:06;;;;;;;26.05;17.10;;;;;;;14.60;80.26;100955.06;5110100;28;20035;-20
2021/11/06 09:04:32;;;;;;;24.27;16.20;;;;;;;14.49;80.88;100961.16;5109939;28;20555;-20
2021/11/06 09:06:57;;;;;;;23.23;16.42;;;;;;;14.72;82.57;100971.25;5109797;28;20028;-20
2021/11/06 09:09:23;;;;;;;26.73;19.50;;;;;;;15.06;81.41;100970.63;5091741;28;20403;-20
2021/11/06 09:11:51;;;;;;;21.08;15.30;;;;;;;15.19;79.25;100972.31;5109822;28;20031;-20
2021/11/06 09:14:17;;;;;;;23.38;16.88;;;;;;;15.18;81.08;100984.13;5109734;28;20023;-20
2021/11/06 09:16:44;;;;;;;21.60;15.48;;;;;;;15.22;78.33;100979.94;5109378;28;20444;-20
2021/11/06 09:19:10;;;;;;;26.30;16.07;;;;;;;15.62;77.52;100968.59;5091662;28;20028;-20
2021/11/06 09:21:35;;;;;;;25.00;17.23;;;;;;;15.92;78.46;100972.31;5109837;28;20414;-20
2021/11/06 09:24:03;;;;;;;20.52;16.15;;;;;;;16.05;77.20;100978.28;5091031;28;20031;-21
2021/11/06 09:26:39;;;;;;;20.27;15.60;;;;;;;16.31;74.51;100970.00;5108890;28;20031;-21
2021/11/06 09:29:05;;;;;;;21.75;15.65;;;;;;;16.04;78.07;100960.50;5109336;28;20138;-20
2021/11/06 09:31:30;;;;;;;20.13;16.15;;;;;;;16.41;76.73;100979.09;5109411;28;20028;-20
2021/11/06 09:33:56;;;;;;;24.20;16.10;;;;;;;16.83;75.40;100978.94;5109309;28;20035;-21
2021/11/06 09:36:21;;;;;;;21.95;15.70;;;;;;;16.62;77.84;100960.72;5074233;28;20024;-20
2021/11/06 09:38:47;;;;;;;20.65;15.10;;;;;;;17.02;75.36;100965.31;5108981;28;20057;-19
2021/11/06 09:41:12;;;;;;;21.77;16.58;;;;;;;17.60;73.78;100958.81;5108726;28;20027;-20
2021/11/06 09:43:38;;;;;;;22.35;15.80;;;;;;;17.80;71.84;100954.84;5108637;28;20118;-19
2021/11/06 09:46:05;;;;;;;21.13;15.27;;;;;;;17.66;72.65;100949.75;5090975;28;20059;-20
2021/11/06 09:48:30;;;;;;;20.80;15.68;;;;;;;18.17;73.69;100946.25;5090290;28;20035;-20
2021/11/06 09:50:57;;;;;;;21.80;16.30;;;;;;;18.51;71.21;100940.78;5109094;28;20032;-21
2021/11/06 09:53:29;;;;;;;23.45;14.68;;;;;;;18.82;68.32;100933.91;5091009;28;20471;-20
2021/11/06 09:55:55;;;;;;;20.17;15.10;;;;;;;18.98;67.16;100933.03;5109124;28;20418;-20
2021/11/06 09:58:21;;;;;;;21.60;14.65;;;;;;;19.30;65.93;100943.06;5109066;28;20030;-20
2021/11/06 10:00:46;;;;;;;22.10;15.10;;;;;;;18.43;70.11;100942.03;5108537;28;20031;-20
2021/11/06 10:13:00;;;;;;;23.30;15.73;;;;;;;19.25;67.76;100941.13;4826698;27;8242872;-20
2021/11/06 10:15:26;;;;;;;21.77;15.95;;;;;;;20.04;66.39;100928.81;5065573;28;20040;-21
2021/11/06 10:17:52;;;;;;;20.60;15.88;;;;;;;19.95;66.06;100930.38;5065542;28;20086;-21
2021/11/06 10:20:28;;;;;;;23.27;16.38;;;;;;;20.04;65.97;100928.81;5065393;28;20041;-20
2021/11/06 10:22:54;;;;;;;23.55;15.55;;;;;;;20.43;64.47;100928.50;5065628;28;20116;-21
2021/11/06 10:25:21;;;;;;;23.30;16.33;;;;;;;20.53;62.70;100929.63;5065506;28;20118;-20
2021/11/06 10:28:16;;;;;;;23.40;16.83;;;;;;;21.04;63.19;100935.25;5065203;28;20028;-20
2021/11/06 10:30:43;;;;;;;21.52;15.65;;;;;;;20.99;61.96;100921.69;5064497;28;20075;-20
2021/11/06 10:33:13;;;;;;;22.55;15.52;;;;;;;21.35;60.63;100935.28;5065152;28;20107;-20
2021/11/06 10:35:39;;;;;;;20.40;15.85;;;;;;;21.33;60.46;100910.34;5065166;28;20055;-20
2021/11/06 10:38:10;;;;;;;22.00;15.35;;;;;;;21.02;62.56;100921.13;5065324;28;20031;-20
2021/11/06 10:40:44;;;;;;;21.55;14.95;;;;;;;21.28;61.44;100914.66;5064878;28;20518;-20
2021/11/06 10:43:11;;;;;;;22.30;15.05;;;;;;;21.40;62.70;100916.31;5063924;28;20028;-19
2021/11/06 10:45:48;;;;;;;20.95;14.63;;;;;;;21.64;61.76;100920.16;5063655;28;20431;-20
2021/11/06 10:48:18;;;;;;;19.67;14.88;;;;;;;22.02;59.05;100923.34;5064901;28;20373;-20
2021/11/06 10:50:44;;;;;;;23.23;14.57;;;;;;;22.00;59.47;100930.97;5063683;28;20043;-20
2021/11/06 10:53:09;;;;;;;20.80;13.98;;;;;;;22.53;58.37;100924.34;5065188;28;20484;-20
2021/11/06 10:55:36;;;;;;;21.77;13.82;;;;;;;22.53;57.62;100910.75;5065020;28;20043;-20
2021/11/06 10:58:23;;;;;;;18.73;14.30;;;;;;;22.67;58.81;100923.44;5065000;28;20037;-20
2021/11/06 11:00:59;;;;;;;21.90;14.13;;;;;;;22.57;58.21;100909.09;5063267;28;20516;-19
2021/11/06 11:03:31;;;;;;;20.17;13.20;;;;;;;22.71;57.36;100915.56;5065434;28;20037;-20
2021/11/06 11:05:58;;;;;;;18.90;12.95;;;;;;;22.70;55.17;100903.06;5064563;28;20115;-19
2021/11/06 11:08:24;;;;;;;20.30;13.18;;;;;;;23.21;54.03;100910.94;5064345;28;20025;-20
2021/11/06 11:10:49;;;;;;;20.60;14.02;;;;;;;23.10;54.49;100895.78;5056576;28;20029;-20
2021/11/06 11:13:17;;;;;;;21.42;14.15;;;;;;;23.39;54.68;100903.19;5053867;28;20052;-20